Time;durP1;ratioP1;P1;durP2;ratioP2;P2;SDS_P1;SDS_P2;PMS_P1;PMS_P2;Temp;Humidity;BMP_temperature;BMP_pressure;BME280_temperature;BME280_humidity;BME280_pressure;Samples;Min_cycle;Max_cycle;Signal;HPM_P1;HPM_P2
2024/01/01 00:02:10;;;;;;;46.90;39.30;;;6.10;87.80;;;;;;5040748;28;20703;-89
2024/01/01 00:04:35;;;;;;;45.57;40.70;;;6.10;87.80;;;;;;5041837;28;20529;-88
2024/01/01 00:07:01;;;;;;;48.90;40.87;;;6.10;87.80;;;;;;5044419;28;20617;-89
2024/01/01 00:09:27;;;;;;;49.47;40.37;;;6.10;87.90;;;;;;5042086;28;20192;-91
2024/01/01 00:11:52;;;;;;;45.03;40.33;;;6.00;87.80;;;;;;5040767;28;20172;-89
2024/01/01 00:14:18;;;;;;;45.20;40.23;;;6.10;87.80;;;;;;5040959;28;20571;-88
2024/01/01 00:16:43;;;;;;;47.87;36.37;;;6.10;87.80;;;;;;5038539;28;20173;-89
2024/01/01 00:19:09;;;;;;;41.67;36.70;;;6.00;87.80;;;;;;5037977;28;20207;-89
2024/01/01 00:21:34;;;;;;;39.80;35.60;;;6.00;87.90;;;;;;5037259;28;20192;-90
2024/01/01 00:24:00;;;;;;;45.43;32.40;;;6.00;87.90;;;;;;5038617;28;20180;-87
2024/01/01 00:26:25;;;;;;;28.47;21.47;;;6.00;87.90;;;;;;5037528;28;20205;-91
2024/01/01 00:28:51;;;;;;;28.50;19.77;;;6.00;87.90;;;;;;5038773;28;20181;-90
2024/01/01 00:31:16;;;;;;;34.07;30.43;;;6.00;87.90;;;;;;5037361;28;20207;-91
2024/01/01 00:33:42;;;;;;;35.63;30.43;;;5.90;87.90;;;;;;5037311;28;20183;-89
2024/01/01 00:36:08;;;;;;;32.60;29.77;;;5.90;87.90;;;;;;5038299;28;20172;-89
2024/01/01 00:38:33;;;;;;;34.00;26.60;;;5.90;87.90;;;;;;5036991;28;20215;-89
2024/01/01 00:40:59;;;;;;;35.00;27.63;;;5.90;87.90;;;;;;5038415;28;20240;-89
2024/01/01 00:43:25;;;;;;;29.53;25.20;;;5.90;87.90;;;;;;5037141;28;20180;-90
2024/01/01 00:45:50;;;;;;;28.53;23.73;;;5.90;87.90;;;;;;5036433;28;20286;-89
2024/01/01 00:48:16;;;;;;;29.00;26.13;;;5.90;87.90;;;;;;5036329;28;20187;-89
2024/01/01 00:50:42;;;;;;;22.33;18.97;;;5.90;87.90;;;;;;5037331;28;20196;-90
2024/01/01 00:53:08;;;;;;;27.03;19.37;;;5.90;87.90;;;;;;5037439;28;20184;-89
2024/01/01 00:55:33;;;;;;;26.77;20.53;;;5.90;87.80;;;;;;5038536;28;20275;-89
2024/01/01 00:57:59;;;;;;;29.77;26.30;;;6.00;87.80;;;;;;5040751;28;19977;-88
2024/01/01 01:00:24;;;;;;;32.17;28.63;;;5.90;87.90;;;;;;5040809;28;20204;-89
2024/01/01 01:02:50;;;;;;;22.30;16.70;;;6.00;88.00;;;;;;5042124;28;20180;-90
2024/01/01 01:05:15;;;;;;;23.50;16.13;;;6.00;88.10;;;;;;5042493;28;20215;-89
2024/01/01 01:07:41;;;;;;;22.50;17.30;;;6.10;88.00;;;;;;5047269;28;20183;-88
2024/01/01 01:10:07;;;;;;;21.67;17.70;;;6.10;87.80;;;;;;5049758;28;20280;-88
2024/01/01 01:12:32;;;;;;;21.20;15.43;;;6.20;87.80;;;;;;5045686;28;20172;-90
2024/01/01 01:14:58;;;;;;;20.97;16.80;;;6.30;87.60;;;;;;5045024;28;20181;-90
2024/01/01 01:17:23;;;;;;;22.13;17.13;;;6.20;87.70;;;;;;5047749;28;20190;-89
2024/01/01 01:19:49;;;;;;;22.53;17.13;;;6.30;87.70;;;;;;5048828;28;20587;-89
2024/01/01 01:22:14;;;;;;;23.87;18.43;;;6.30;87.60;;;;;;5048354;28;20184;-89
2024/01/01 01:24:40;;;;;;;25.23;17.80;;;6.30;87.50;;;;;;5046767;28;20184;-90
2024/01/01 01:27:05;;;;;;;25.90;16.63;;;6.40;87.40;;;;;;5046316;28;20173;-89
2024/01/01 01:29:31;;;;;;;22.53;16.83;;;6.50;87.20;;;;;;5048130;28;20192;-88
2024/01/01 01:31:56;;;;;;;22.13;15.90;;;6.50;87.00;;;;;;5047416;28;20248;-88
2024/01/01 01:34:22;;;;;;;29.10;17.00;;;6.50;86.90;;;;;;5045175;28;20268;-90
2024/01/01 01:36:47;;;;;;;22.13;15.73;;;6.50;86.80;;;;;;5046785;28;20227;-90
2024/01/01 01:39:13;;;;;;;19.97;16.30;;;6.50;87.00;;;;;;5047743;28;20181;-90
2024/01/01 01:41:39;;;;;;;24.90;16.83;;;6.50;87.00;;;;;;5046363;28;20187;-87
2024/01/01 01:44:05;;;;;;;17.70;13.83;;;6.50;87.00;;;;;;5046042;28;20236;-90
2024/01/01 01:46:31;;;;;;;18.93;15.97;;;6.60;86.90;;;;;;5036495;28;20243;-90
2024/01/01 01:48:57;;;;;;;31.40;24.97;;;6.70;86.80;;;;;;5035984;28;20177;-89
2024/01/01 01:51:25;;;;;;;28.67;25.97;;;6.80;86.60;;;;;;5038443;28;20563;-89
2024/01/01 01:53:51;;;;;;;27.17;24.33;;;6.80;86.20;;;;;;5042460;28;20192;-88
2024/01/01 01:56:17;;;;;;;29.33;26.47;;;6.80;86.10;;;;;;5047297;28;20181;-87
2024/01/01 01:58:43;;;;;;;28.10;25.23;;;6.80;86.10;;;;;;5048077;28;20280;-88
2024/01/01 02:01:12;;;;;;;27.17;24.30;;;6.80;86.10;;;;;;5043776;28;20204;-88
2024/01/01 02:03:37;;;;;;;26.07;22.33;;;6.90;86.20;;;;;;5052037;28;20169;-88
2024/01/01 02:06:04;;;;;;;25.93;23.43;;;6.90;86.10;;;;;;5049941;28;20196;-90
2024/01/01 02:08:30;;;;;;;25.10;22.80;;;7.00;85.90;;;;;;5049428;28;20181;-90
2024/01/01 02:10:56;;;;;;;26.20;23.50;;;6.90;86.10;;;;;;5053041;28;20177;-88
2024/01/01 02:13:27;;;;;;;25.30;22.97;;;6.80;86.50;;;;;;5048535;28;20191;-90
2024/01/01 02:15:53;;;;;;;23.40;21.27;;;6.80;86.60;;;;;;5035447;28;20196;-89
2024/01/01 02:18:19;;;;;;;23.30;21.17;;;6.80;86.40;;;;;;5037033;28;20184;-90
2024/01/01 02:20:45;;;;;;;20.73;19.20;;;7.10;86.20;;;;;;5036232;28;20314;-90
2024/01/01 02:23:10;;;;;;;;;;;7.20;85.70;;;;;;5034832;28;20230;-89
2024/01/01 02:25:36;;;;;;;23.00;21.00;;;7.30;85.30;;;;;;5051560;28;20020;-88
2024/01/01 02:28:02;;;;;;;25.00;22.63;;;7.30;85.40;;;;;;5034933;28;20173;-89
2024/01/01 02:30:27;;;;;;;14.13;11.53;;;7.30;85.30;;;;;;5035565;28;20189;-89
2024/01/01 02:32:53;;;;;;;15.77;12.47;;;7.30;85.20;;;;;;5035392;28;20195;-89
2024/01/01 02:35:18;;;;;;;18.37;11.47;;;7.30;85.10;;;;;;5035172;28;20176;-89
2024/01/01 02:37:43;;;;;;;22.97;20.83;;;7.20;85.30;;;;;;5036409;28;20168;-89
2024/01/01 02:40:11;;;;;;;26.17;23.63;;;7.20;85.30;;;;;;5034865;28;20200;-89
2024/01/01 02:42:37;;;;;;;18.63;16.87;;;7.20;85.40;;;;;;5036119;28;20211;-89
2024/01/01 02:45:03;;;;;;;14.00;12.57;;;7.20;85.50;;;;;;5035950;28;20679;-88
2024/01/01 02:47:29;;;;;;;15.73;11.90;;;7.20;85.60;;;;;;5034871;28;20176;-89
2024/01/01 02:49:55;;;;;;;23.20;21.40;;;7.20;85.70;;;;;;5035245;28;20198;-88
2024/01/01 02:52:20;;;;;;;25.97;23.80;;;7.20;85.60;;;;;;5034801;28;20604;-89
2024/01/01 02:54:46;;;;;;;17.53;11.97;;;7.20;85.70;;;;;;5035828;28;20177;-88
2024/01/01 02:57:12;;;;;;;20.47;12.47;;;7.20;85.80;;;;;;5035137;28;20208;-89
2024/01/01 02:59:39;;;;;;;17.23;12.20;;;7.20;86.00;;;;;;5034354;28;20197;-89
2024/01/01 03:02:04;;;;;;;16.40;12.37;;;7.30;85.90;;;;;;5034432;28;20238;-90
2024/01/01 03:04:31;;;;;;;14.10;12.43;;;7.30;85.90;;;;;;5034423;28;20185;-90
2024/01/01 03:06:57;;;;;;;13.17;11.80;;;7.20;86.00;;;;;;5034703;28;20134;-89
2024/01/01 03:09:23;;;;;;;14.47;11.77;;;7.20;86.30;;;;;;5034292;28;20669;-89
2024/01/01 03:11:48;;;;;;;14.97;12.00;;;7.30;86.10;;;;;;5034356;28;20184;-90
2024/01/01 03:14:14;;;;;;;15.27;11.60;;;7.30;86.10;;;;;;5034433;28;20759;-89
2024/01/01 03:16:40;;;;;;;13.00;11.87;;;7.30;86.00;;;;;;5034392;28;20177;-90
2024/01/01 03:19:06;;;;;;;12.77;11.63;;;7.40;85.90;;;;;;5035605;28;20569;-89
2024/01/01 03:21:31;;;;;;;14.13;11.77;;;7.50;85.60;;;;;;5035098;28;20180;-89
2024/01/01 03:23:57;;;;;;;12.90;11.47;;;7.50;85.30;;;;;;5034793;28;20287;-90
2024/01/01 03:26:22;;;;;;;12.77;11.47;;;7.60;85.30;;;;;;5034561;28;20275;-89
2024/01/01 03:28:48;;;;;;;15.20;12.13;;;7.50;85.50;;;;;;5034730;28;20184;-89
2024/01/01 03:31:14;;;;;;;15.70;12.97;;;7.50;85.50;;;;;;5034104;28;20291;-89
2024/01/01 03:33:39;;;;;;;13.90;12.50;;;7.60;85.50;;;;;;5035606;28;20165;-89
2024/01/01 03:36:05;;;;;;;14.23;12.30;;;7.60;85.40;;;;;;5034346;28;20177;-89
2024/01/01 03:38:31;;;;;;;25.93;23.90;;;7.60;85.40;;;;;;5035148;28;20267;-89
2024/01/01 03:40:56;;;;;;;26.33;24.10;;;7.60;85.50;;;;;;5034203;28;20286;-89
2024/01/01 03:43:22;;;;;;;25.67;23.47;;;7.50;85.80;;;;;;5035689;28;20169;-89
2024/01/01 03:45:47;;;;;;;26.27;23.87;;;7.60;85.70;;;;;;5033907;28;20196;-89
2024/01/01 03:48:13;;;;;;;25.03;23.07;;;7.60;85.40;;;;;;5035657;28;20177;-88
2024/01/01 03:50:39;;;;;;;24.13;21.90;;;7.60;85.40;;;;;;5034083;28;20200;-89
2024/01/01 03:53:04;;;;;;;24.93;22.83;;;7.60;85.70;;;;;;5035274;28;20189;-90
2024/01/01 03:55:30;;;;;;;25.00;22.33;;;7.50;85.80;;;;;;5033896;28;20184;-89
2024/01/01 03:57:56;;;;;;;26.00;23.47;;;7.50;85.90;;;;;;5036457;28;20256;-89
2024/01/01 04:00:22;;;;;;;23.40;21.00;;;7.60;85.80;;;;;;5032407;28;20235;-89
2024/01/01 04:02:48;;;;;;;24.73;22.40;;;7.50;86.00;;;;;;5032820;28;20184;-89
2024/01/01 04:05:14;;;;;;;25.37;23.00;;;7.50;86.00;;;;;;5035876;28;20192;-89
2024/01/01 04:07:40;;;;;;;29.83;23.90;;;7.50;86.00;;;;;;5036179;28;20266;-89
2024/01/01 04:10:06;;;;;;;26.43;23.23;;;7.60;85.90;;;;;;5036888;28;20197;-88
2024/01/01 04:12:32;;;;;;;27.47;24.87;;;7.60;85.80;;;;;;5036017;28;20177;-89
2024/01/01 04:14:58;;;;;;;26.57;23.87;;;7.60;85.70;;;;;;5036228;28;20177;-89
2024/01/01 04:17:23;;;;;;;26.23;23.40;;;7.60;85.80;;;;;;5035498;28;20192;-88
2024/01/01 04:19:49;;;;;;;25.97;23.20;;;7.50;86.10;;;;;;5037136;28;20219;-89
2024/01/01 04:22:15;;;;;;;27.17;24.67;;;7.60;85.90;;;;;;5035532;28;20200;-89
2024/01/01 04:24:42;;;;;;;27.47;24.87;;;7.50;85.90;;;;;;5035589;28;20548;-89
2024/01/01 04:27:08;;;;;;;16.03;13.70;;;7.50;86.10;;;;;;5036799;28;20189;-89
2024/01/01 04:29:34;;;;;;;17.80;14.23;;;7.50;86.00;;;;;;5036720;28;20200;-89
2024/01/01 04:31:59;;;;;;;27.77;24.80;;;7.50;86.10;;;;;;5035432;28;20272;-89
2024/01/01 04:34:25;;;;;;;27.97;25.23;;;7.60;85.90;;;;;;5036920;28;20176;-89
2024/01/01 04:36:50;;;;;;;29.43;26.53;;;7.60;86.10;;;;;;5035286;28;20169;-89
2024/01/01 04:39:16;;;;;;;20.90;16.60;;;7.50;86.20;;;;;;5036083;28;20199;-89
2024/01/01 04:41:42;;;;;;;23.43;17.00;;;7.60;86.20;;;;;;5035098;28;20188;-90
2024/01/01 04:44:07;;;;;;;29.67;26.77;;;7.50;86.20;;;;;;5036790;28;20177;-89
2024/01/01 04:46:33;;;;;;;29.63;26.63;;;7.50;86.20;;;;;;5036540;28;20207;-89
2024/01/01 04:48:58;;;;;;;29.83;26.87;;;7.50;86.20;;;;;;5036181;28;20248;-89
2024/01/01 04:51:24;;;;;;;22.97;18.40;;;7.50;86.30;;;;;;5034982;28;20184;-89
2024/01/01 04:53:49;;;;;;;22.07;17.77;;;7.50;86.20;;;;;;5036247;28;20168;-90
2024/01/01 04:56:16;;;;;;;20.40;17.77;;;7.50;86.10;;;;;;5036297;28;20187;-90
2024/01/01 04:58:42;;;;;;;23.60;17.83;;;7.50;86.20;;;;;;5034960;28;20258;-89
2024/01/01 05:01:08;;;;;;;19.53;17.47;;;7.40;86.30;;;;;;5034900;28;20203;-89
2024/01/01 05:03:34;;;;;;;22.70;17.13;;;7.50;86.30;;;;;;5034815;28;20177;-89
2024/01/01 05:05:59;;;;;;;23.97;19.33;;;7.50;86.40;;;;;;5034890;28;20200;-88
2024/01/01 05:08:25;;;;;;;21.50;18.43;;;7.50;86.10;;;;;;5036650;28;20219;-90
2024/01/01 05:10:50;;;;;;;21.97;18.03;;;7.40;86.30;;;;;;5035630;28;20291;-89
2024/01/01 05:13:16;;;;;;;23.30;18.97;;;7.40;86.50;;;;;;5035698;28;20211;-90
2024/01/01 05:15:43;;;;;;;27.13;19.20;;;7.50;86.40;;;;;;5033923;28;20736;-89
2024/01/01 05:18:09;;;;;;;26.23;19.50;;;7.40;86.50;;;;;;5036396;28;20188;-89
2024/01/01 05:20:34;;;;;;;27.90;20.03;;;7.40;86.30;;;;;;5036276;28;20196;-89
2024/01/01 05:23:00;;;;;;;21.87;19.17;;;7.40;86.20;;;;;;5036526;28;20188;-89
2024/01/01 05:25:25;;;;;;;24.60;19.53;;;7.40;86.20;;;;;;5035950;28;20288;-90
2024/01/01 05:27:51;;;;;;;35.90;21.20;;;7.40;86.20;;;;;;5035035;28;20267;-88
2024/01/01 05:30:17;;;;;;;29.93;20.30;;;7.40;86.30;;;;;;5036297;28;20268;-89
2024/01/01 05:32:42;;;;;;;25.17;18.53;;;7.40;86.20;;;;;;5036198;28;20172;-90
2024/01/01 05:35:08;;;;;;;32.43;29.43;;;7.40;86.20;;;;;;5034882;28;20227;-90
2024/01/01 05:37:33;;;;;;;33.93;30.57;;;7.40;86.10;;;;;;5037124;28;20180;-89
2024/01/01 05:39:59;;;;;;;32.17;28.87;;;7.40;86.20;;;;;;5036843;28;20616;-89
2024/01/01 05:42:25;;;;;;;35.10;31.47;;;7.40;86.10;;;;;;5035642;28;20181;-89
2024/01/01 05:44:50;;;;;;;32.83;29.63;;;7.40;86.10;;;;;;5035552;28;20594;-89
2024/01/01 05:47:16;;;;;;;34.90;31.17;;;7.40;86.10;;;;;;5035933;28;20173;-89
2024/01/01 05:49:41;;;;;;;32.10;28.93;;;7.50;86.00;;;;;;5035302;28;20574;-89
2024/01/01 05:52:07;;;;;;;34.80;31.67;;;7.50;85.80;;;;;;5036060;28;20172;-89
2024/01/01 05:54:32;;;;;;;;;;;7.50;85.80;;;;;;5035851;28;20163;-90
2024/01/01 05:56:58;;;;;;;;;;;7.40;85.70;;;;;;5035379;28;19905;-89
2024/01/01 05:59:23;;;;;;;;;;;7.50;85.70;;;;;;5037365;28;19928;-89
2024/01/01 06:01:48;;;;;;;;;;;7.40;85.50;;;;;;5035211;28;19928;-89
2024/01/01 06:04:14;;;;;;;32.90;29.73;;;7.50;85.40;;;;;;5034473;28;20254;-89
2024/01/01 06:06:39;;;;;;;30.10;27.27;;;7.50;85.20;;;;;;5035278;28;20219;-90
2024/01/01 06:09:05;;;;;;;29.97;26.97;;;7.50;85.10;;;;;;5035084;28;20173;-89
2024/01/01 06:11:31;;;;;;;30.13;27.37;;;7.50;85.20;;;;;;5035248;28;20169;-89
2024/01/01 06:13:56;;;;;;;34.13;30.63;;;7.50;85.10;;;;;;5033806;28;20659;-89
2024/01/01 06:16:25;;;;;;;31.77;28.90;;;7.50;85.00;;;;;;5033708;28;20173;-89
2024/01/01 06:18:50;;;;;;;21.77;18.07;;;7.50;84.90;;;;;;5033690;28;20188;-90
2024/01/01 06:21:16;;;;;;;23.67;18.47;;;7.50;84.90;;;;;;5033971;28;20691;-89
2024/01/01 06:23:45;;;;;;;34.40;30.77;;;7.50;84.70;;;;;;5033659;28;20180;-89
2024/01/01 06:26:11;;;;;;;31.43;28.80;;;7.50;84.60;;;;;;5034734;28;20285;-89
2024/01/01 06:28:36;;;;;;;33.10;29.43;;;7.60;84.30;;;;;;5033486;28;20175;-88
2024/01/01 06:31:02;;;;;;;24.37;17.10;;;7.60;84.20;;;;;;5033295;28;20192;-89
2024/01/01 06:33:29;;;;;;;18.87;16.90;;;7.60;84.10;;;;;;5033098;28;20177;-89
2024/01/01 06:35:55;;;;;;;30.00;27.53;;;7.70;83.80;;;;;;5034057;28;20172;-89
2024/01/01 06:38:20;;;;;;;33.43;30.30;;;7.70;83.30;;;;;;5033306;28;20199;-88
2024/01/01 06:40:46;;;;;;;29.67;27.00;;;7.70;83.40;;;;;;5034703;28;20203;-89
2024/01/01 06:43:12;;;;;;;21.43;15.87;;;7.70;83.20;;;;;;5033421;28;20267;-89
2024/01/01 06:45:37;;;;;;;19.13;17.20;;;7.70;83.50;;;;;;5033358;28;20211;-90
2024/01/01 06:48:03;;;;;;;17.93;14.07;;;7.60;83.70;;;;;;5034579;28;20262;-89
2024/01/01 06:50:29;;;;;;;21.87;14.90;;;7.60;83.90;;;;;;5033277;28;20196;-89
2024/01/01 06:52:55;;;;;;;14.63;13.27;;;7.70;83.90;;;;;;5033091;28;20176;-89
2024/01/01 06:55:22;;;;;;;12.97;11.83;;;7.70;84.30;;;;;;5032784;28;20176;-89
2024/01/01 06:57:48;;;;;;;15.50;11.73;;;7.60;84.90;;;;;;5033090;28;20210;-89
2024/01/01 07:00:15;;;;;;;20.80;13.73;;;7.50;85.60;;;;;;5032905;28;20204;-90
2024/01/01 07:02:41;;;;;;;20.47;13.80;;;7.40;85.90;;;;;;5034151;28;20199;-87
2024/01/01 07:05:07;;;;;;;16.80;12.93;;;7.50;85.70;;;;;;5032851;28;20228;-90
2024/01/01 07:07:33;;;;;;;15.23;11.97;;;7.50;85.30;;;;;;5032872;28;20173;-89
2024/01/01 07:09:58;;;;;;;16.73;14.80;;;7.60;85.00;;;;;;5032695;28;20239;-89
2024/01/01 07:12:27;;;;;;;17.47;13.47;;;7.50;85.40;;;;;;5032758;28;20544;-88
2024/01/01 07:14:53;;;;;;;20.83;14.07;;;7.60;85.10;;;;;;5034201;28;20251;-88
2024/01/01 07:17:19;;;;;;;21.70;13.93;;;7.50;85.10;;;;;;5034015;28;20192;-89
2024/01/01 07:19:45;;;;;;;15.90;13.07;;;7.50;85.10;;;;;;5032788;28;20193;-89
2024/01/01 07:22:10;;;;;;;20.77;14.37;;;7.50;85.40;;;;;;5034090;28;20176;-89
2024/01/01 07:24:36;;;;;;;17.87;14.23;;;7.50;85.50;;;;;;5032780;28;20179;-89
2024/01/01 07:27:01;;;;;;;25.07;21.93;;;7.60;85.40;;;;;;5033769;28;20663;-89
2024/01/01 07:29:29;;;;;;;26.13;23.77;;;7.50;85.60;;;;;;5033169;28;20287;-90
2024/01/01 07:31:54;;;;;;;24.40;21.93;;;7.50;85.70;;;;;;5035223;28;20173;-90
2024/01/01 07:34:20;;;;;;;23.70;21.53;;;7.50;85.80;;;;;;5036412;28;20545;-91
2024/01/01 07:36:48;;;;;;;25.43;22.93;;;7.50;85.80;;;;;;5040152;28;20179;-90
2024/01/01 07:39:19;;;;;;;24.67;22.47;;;7.50;85.80;;;;;;5044195;28;20172;-90
2024/01/01 07:41:47;;;;;;;24.00;21.50;;;7.50;86.00;;;;;;5038689;28;20157;-89
2024/01/01 07:44:13;;;;;;;21.77;19.47;;;7.40;86.30;;;;;;5038837;28;20176;-89
2024/01/01 07:46:39;;;;;;;23.00;20.83;;;7.40;86.30;;;;;;5037299;28;20205;-90
2024/01/01 07:49:06;;;;;;;19.60;18.00;;;7.40;86.40;;;;;;5038580;28;20172;-90
2024/01/01 07:51:32;;;;;;;17.10;15.70;;;7.50;86.40;;;;;;5038498;28;20584;-89
2024/01/01 07:53:58;;;;;;;18.63;17.23;;;7.50;86.40;;;;;;5037995;28;20204;-87
2024/01/01 07:56:23;;;;;;;19.13;17.27;;;7.40;86.80;;;;;;5037084;28;20190;-89
2024/01/01 07:58:51;;;;;;;18.80;17.33;;;7.30;87.10;;;;;;5036800;28;20231;-89
2024/01/01 08:01:16;;;;;;;17.67;15.93;;;7.30;87.20;;;;;;5037482;28;20554;-89
2024/01/01 08:03:42;;;;;;;17.87;16.20;;;7.30;87.40;;;;;;5037453;28;20238;-91
2024/01/01 08:06:07;;;;;;;17.77;16.00;;;7.30;87.60;;;;;;5038684;28;20868;-91
2024/01/01 08:08:33;;;;;;;18.07;16.57;;;7.30;87.60;;;;;;5037123;28;20184;-89
2024/01/01 08:10:58;;;;;;;22.13;17.27;;;7.30;87.80;;;;;;5036744;28;20200;-88
2024/01/01 08:13:24;;;;;;;8.53;7.83;;;7.20;88.20;;;;;;5037255;28;20226;-89
2024/01/01 08:15:50;;;;;;;12.60;9.33;;;7.30;88.20;;;;;;5037226;28;20176;-89
2024/01/01 08:18:16;;;;;;;15.40;9.17;;;7.30;88.10;;;;;;5052910;28;20613;-89
2024/01/01 08:20:43;;;;;;;12.33;10.10;;;7.20;88.40;;;;;;5052367;28;20290;-89
2024/01/01 08:23:09;;;;;;;16.37;13.53;;;7.20;88.50;;;;;;5035133;28;20180;-88
2024/01/01 08:25:35;;;;;;;11.37;8.40;;;7.20;88.80;;;;;;5035990;28;20192;-89
2024/01/01 08:28:01;;;;;;;10.30;7.93;;;7.20;89.00;;;;;;5051951;28;20169;-89
2024/01/01 08:30:26;;;;;;;14.90;10.57;;;7.10;89.20;;;;;;5051755;28;20196;-89
2024/01/01 08:32:52;;;;;;;11.33;10.53;;;7.10;89.50;;;;;;5035442;28;20231;-91
2024/01/01 08:35:17;;;;;;;15.47;13.37;;;7.00;89.70;;;;;;5035419;28;20215;-89
2024/01/01 08:37:43;;;;;;;8.30;6.77;;;7.00;90.20;;;;;;5035459;28;20231;-88
2024/01/01 08:40:12;;;;;;;10.10;7.00;;;7.00;90.40;;;;;;5051604;28;20203;-90
2024/01/01 08:42:38;;;;;;;15.43;7.80;;;6.90;90.90;;;;;;5036941;28;20652;-89
2024/01/01 08:45:04;;;;;;;5.90;5.30;;;6.90;91.20;;;;;;5051859;28;20192;-90
2024/01/01 08:47:29;;;;;;;8.13;5.93;;;6.80;91.50;;;;;;5035615;28;20173;-90
2024/01/01 08:49:55;;;;;;;9.43;6.10;;;6.80;91.40;;;;;;5038453;28;20556;-91
2024/01/01 08:52:21;;;;;;;16.47;7.60;;;6.70;91.60;;;;;;5053444;28;20242;-90
2024/01/01 08:54:46;;;;;;;16.70;7.57;;;6.60;91.90;;;;;;5051494;28;20276;-91
2024/01/01 08:57:12;;;;;;;8.57;6.00;;;6.60;92.30;;;;;;5051547;28;20546;-89
2024/01/01 08:59:41;;;;;;;12.70;7.07;;;6.60;92.50;;;;;;5036314;28;20200;-89
2024/01/01 09:02:09;;;;;;;9.73;8.87;;;6.50;92.60;;;;;;5036815;28;20177;-91
2024/01/01 09:04:34;;;;;;;15.40;10.30;;;6.50;92.60;;;;;;5051722;28;20234;-88
2024/01/01 09:07:01;;;;;;;12.13;7.20;;;6.50;92.60;;;;;;5035208;28;20197;-87
2024/01/01 09:09:29;;;;;;;11.10;6.73;;;6.50;92.50;;;;;;5037090;28;20223;-87
2024/01/01 09:11:56;;;;;;;13.37;5.87;;;6.60;92.60;;;;;;5051698;28;20192;-90
2024/01/01 09:14:22;;;;;;;15.60;11.33;;;6.60;92.70;;;;;;5036242;28;20255;-89
2024/01/01 09:16:47;;;;;;;18.33;11.57;;;6.60;92.80;;;;;;5034683;28;20208;-90
2024/01/01 09:19:16;;;;;;;16.93;10.80;;;6.60;92.80;;;;;;5034285;28;20200;-89
2024/01/01 09:21:43;;;;;;;15.03;7.13;;;6.60;93.00;;;;;;5034367;28;20181;-89
2024/01/01 09:24:09;;;;;;;17.47;7.97;;;6.60;93.10;;;;;;5034471;28;20180;-89
2024/01/01 09:26:35;;;;;;;17.87;11.87;;;6.60;93.20;;;;;;5050953;28;20207;-90
2024/01/01 09:29:01;;;;;;;15.37;10.20;;;6.60;93.30;;;;;;5041604;28;20195;-91
2024/01/01 09:31:26;;;;;;;13.23;10.03;;;6.60;93.40;;;;;;5034963;28;20653;-89
2024/01/01 09:33:53;;;;;;;12.00;8.87;;;6.60;93.40;;;;;;5033710;28;20267;-90
2024/01/01 09:36:18;;;;;;;19.50;10.43;;;6.50;93.60;;;;;;5034980;28;20169;-90
2024/01/01 09:38:44;;;;;;;16.20;9.80;;;6.60;93.70;;;;;;5035503;28;20172;-89
2024/01/01 09:41:13;;;;;;;14.70;8.97;;;6.60;93.60;;;;;;5050924;28;20199;-89
2024/01/01 09:43:44;;;;;;;15.93;9.37;;;6.60;93.60;;;;;;5050500;28;20606;-89
2024/01/01 09:46:10;;;;;;;;;;;6.60;93.60;;;;;;5035679;28;20192;-89
2024/01/01 09:48:36;;;;;;;12.40;6.07;;;6.60;93.50;;;;;;5036334;28;20638;-89
2024/01/01 09:51:03;;;;;;;14.17;8.50;;;6.70;93.40;;;;;;5036760;28;20192;-89
2024/01/01 09:53:30;;;;;;;12.83;9.53;;;6.70;93.40;;;;;;5052431;28;20177;-89
2024/01/01 09:55:56;;;;;;;14.33;8.83;;;6.70;93.20;;;;;;5052306;28;20177;-89
2024/01/01 09:58:21;;;;;;;11.50;5.67;;;6.70;93.20;;;;;;5051284;28;20184;-89
2024/01/01 10:00:48;;;;;;;17.27;4.73;;;6.80;92.90;;;;;;5050408;28;20207;-89
2024/01/01 10:03:14;;;;;;;15.03;8.40;;;6.80;92.60;;;;;;5036023;28;20176;-88
2024/01/01 10:05:40;;;;;;;9.33;7.93;;;6.90;92.30;;;;;;5051479;28;20197;-89
2024/01/01 10:08:13;;;;;;;13.13;7.63;;;6.90;92.20;;;;;;5050828;28;20547;-89
2024/01/01 10:10:40;;;;;;;6.27;4.67;;;6.90;92.40;;;;;;5051632;28;20622;-90
2024/01/01 10:13:13;;;;;;;13.63;5.40;;;6.90;92.40;;;;;;5052331;28;20176;-90
2024/01/01 10:15:41;;;;;;;15.27;7.63;;;7.00;92.20;;;;;;5054119;28;20249;-89
2024/01/01 10:18:10;;;;;;;11.40;7.37;;;7.00;92.10;;;;;;5036060;28;20192;-90
2024/01/01 10:20:37;;;;;;;17.17;4.93;;;7.00;92.10;;;;;;5034557;28;20219;-89
2024/01/01 10:23:21;;;;;;;9.20;4.17;;;7.10;92.20;;;;;;5051355;28;20188;-90
2024/01/01 10:25:47;;;;;;;10.80;5.00;;;7.10;92.10;;;;;;5035906;28;20220;-90
2024/01/01 10:28:16;;;;;;;10.70;5.00;;;7.10;92.00;;;;;;5050534;28;20173;-89
2024/01/01 10:30:48;;;;;;;13.60;5.17;;;7.10;91.90;;;;;;5036558;28;20564;-90
2024/01/01 10:33:15;;;;;;;17.07;5.70;;;7.20;91.50;;;;;;5051897;28;20303;-90
2024/01/01 10:35:42;;;;;;;18.53;5.50;;;7.20;91.50;;;;;;5035282;28;20183;-90
2024/01/01 10:38:08;;;;;;;9.20;4.60;;;7.30;91.80;;;;;;5051420;28;20176;-90
2024/01/01 10:40:33;;;;;;;4.27;3.87;;;7.20;91.90;;;;;;5033845;28;20295;-89
2024/01/01 10:43:00;;;;;;;17.40;5.03;;;7.30;92.10;;;;;;5051407;28;20211;-89
2024/01/01 10:45:26;;;;;;;14.07;6.23;;;7.30;91.60;;;;;;5049733;28;20200;-89
2024/01/01 10:47:54;;;;;;;11.20;5.83;;;7.30;91.40;;;;;;5049992;28;20566;-89
2024/01/01 10:50:32;;;;;;;8.27;4.63;;;7.30;91.30;;;;;;5033692;28;20572;-88
2024/01/01 10:53:10;;;;;;;12.90;5.53;;;7.30;91.40;;;;;;5050371;28;20200;-90
2024/01/01 10:55:55;;;;;;;15.80;6.33;;;7.40;91.60;;;;;;5033069;28;20172;-91
2024/01/01 10:58:44;;;;;;;10.60;4.07;;;7.30;91.60;;;;;;5032958;28;20226;-89
2024/01/01 11:01:15;;;;;;;17.60;5.40;;;7.30;91.50;;;;;;5034403;28;20270;-88
2024/01/01 11:03:41;;;;;;;15.50;6.17;;;7.30;91.70;;;;;;5050118;28;20177;-90
2024/01/01 11:06:31;;;;;;;17.17;8.53;;;7.30;91.90;;;;;;5050436;28;20242;-89
2024/01/01 11:09:17;;;;;;;13.23;8.37;;;7.30;92.00;;;;;;5034627;28;20214;-89
2024/01/01 11:11:48;;;;;;;15.13;7.90;;;7.30;92.00;;;;;;5034364;28;20207;-89
2024/01/01 11:14:28;;;;;;;18.63;8.17;;;7.30;91.80;;;;;;5053739;28;20187;-88
2024/01/01 11:16:56;;;;;;;12.43;8.20;;;7.30;91.70;;;;;;5054652;28;20250;-91
2024/01/01 11:19:42;;;;;;;16.67;8.63;;;7.30;91.60;;;;;;5054255;28;20215;-89
2024/01/01 11:22:30;;;;;;;11.37;8.37;;;7.30;91.60;;;;;;5039064;28;20179;-89
2024/01/01 11:24:57;;;;;;;14.90;9.13;;;7.30;91.70;;;;;;5037294;28;20176;-91
2024/01/01 11:27:27;;;;;;;7.60;6.60;;;7.30;91.50;;;;;;5054168;28;20184;-89
2024/01/01 11:29:52;;;;;;;13.30;7.43;;;7.30;91.60;;;;;;5053116;28;20204;-88
2024/01/01 11:32:19;;;;;;;23.70;7.67;;;7.30;91.50;;;;;;5053651;28;20554;-90
2024/01/01 11:35:03;;;;;;;8.83;6.97;;;7.30;91.60;;;;;;5055051;28;20185;-88
2024/01/01 11:37:28;;;;;;;12.40;7.40;;;7.30;91.40;;;;;;5061097;28;20255;-90
2024/01/01 11:39:58;;;;;;;16.33;8.30;;;7.30;91.70;;;;;;5054750;28;20680;-88
2024/01/01 11:42:24;;;;;;;14.23;7.80;;;7.30;92.00;;;;;;5036829;28;20181;-90
2024/01/01 11:44:49;;;;;;;12.93;5.30;;;7.30;92.10;;;;;;5038773;28;20223;-90
2024/01/01 11:47:18;;;;;;;14.25;5.35;;;7.20;92.40;;;;;;5037360;28;20250;-89
2024/01/01 11:49:43;;;;;;;12.27;6.53;;;7.20;92.60;;;;;;5054180;28;20227;-86
2024/01/01 11:52:11;;;;;;;14.57;6.73;;;7.10;92.70;;;;;;5037764;28;20653;-89
2024/01/01 11:54:37;;;;;;;8.47;6.60;;;7.20;92.80;;;;;;5041658;28;20164;-88
2024/01/01 11:57:03;;;;;;;14.73;5.13;;;7.20;92.80;;;;;;5040555;28;20664;-89
2024/01/01 11:59:29;;;;;;;11.00;4.90;;;7.10;92.80;;;;;;5040634;28;20192;-88
2024/01/01 12:01:56;;;;;;;15.33;6.70;;;7.20;92.90;;;;;;5053798;28;20310;-89
2024/01/01 12:04:22;;;;;;;12.83;7.23;;;7.20;92.90;;;;;;5053851;28;20259;-88
2024/01/01 12:06:51;;;;;;;12.13;6.67;;;7.20;92.90;;;;;;5036808;28;20230;-88
2024/01/01 12:09:18;;;;;;;12.93;5.17;;;7.20;93.00;;;;;;5053181;28;20223;-87
2024/01/01 12:11:44;;;;;;;8.93;4.87;;;7.10;93.00;;;;;;5039062;28;20165;-89
2024/01/01 12:14:10;;;;;;;21.33;6.40;;;7.20;93.10;;;;;;5052965;28;20595;-90
2024/01/01 12:16:36;;;;;;;12.53;5.90;;;7.20;93.20;;;;;;5054426;28;20248;-90
2024/01/01 12:19:19;;;;;;;15.03;5.33;;;7.10;93.30;;;;;;5037676;28;20279;-88
2024/01/01 12:21:45;;;;;;;13.53;5.67;;;7.20;93.20;;;;;;5054633;28;20192;-90
2024/01/01 12:24:22;;;;;;;18.70;5.30;;;7.20;93.10;;;;;;5036425;28;20551;-89
2024/01/01 12:26:51;;;;;;;11.33;5.53;;;7.20;93.00;;;;;;5036307;28;20196;-90
2024/01/01 12:29:21;;;;;;;12.27;5.43;;;7.30;92.90;;;;;;5037511;28;20189;-91
2024/01/01 12:31:48;;;;;;;13.77;5.83;;;7.20;92.90;;;;;;5053567;28;20173;-89
2024/01/01 12:34:16;;;;;;;15.33;7.10;;;7.30;92.90;;;;;;5035895;28;20590;-91
2024/01/01 12:36:44;;;;;;;18.23;8.17;;;7.30;92.80;;;;;;5053173;28;20184;-89
2024/01/01 12:39:10;;;;;;;17.53;7.90;;;7.30;92.80;;;;;;5054602;28;20112;-88
2024/01/01 12:41:39;;;;;;;12.85;5.50;;;7.30;92.70;;;;;;5052877;28;20179;-86